Terminal Aerodrome Forecast
Issued by NWS Lake Charles, LA

Home | Current Version | Previous Version | Text Only | Print | Product List | Glossary On
Versions: 1 2 3 4 5 6 7 8 9 10 11 12 13 14 15
000
FTUS44 KLCH 061121
TAFLCH
TAF
KLCH 061121Z 0612/0712 16005KT P6SM SCT250
     FM061400 16008KT P6SM BKN050
      TEMPO 0614/0616 BKN025
     FM061600 19010G17KT P6SM SCT050 BKN250
     FM070000 17005KT P6SM SCT028 SCT200
     FM071000 16005KT P6SM BKN023=

USA.gov is the U.S. government's official web portal to all federal, state and local government web resources and services.